createdAt,value
2024-03-10T00:00:16.701Z,4.38
2024-03-10T00:03:18.097Z,3.72
2024-03-10T00:06:19.503Z,3.72
2024-03-10T00:09:20.844Z,3.90
2024-03-10T00:12:22.279Z,3.47
2024-03-10T00:15:23.711Z,3.53
2024-03-10T00:18:25.127Z,3.72
2024-03-10T00:21:26.538Z,3.65
2024-03-10T00:24:27.869Z,3.53
2024-03-10T00:27:29.285Z,3.20
2024-03-10T00:30:30.647Z,3.90
2024-03-10T00:33:32.382Z,4.28
2024-03-10T00:36:33.727Z,3.97
2024-03-10T00:39:35.148Z,3.80
2024-03-10T00:42:36.582Z,4.10
2024-03-10T00:45:37.945Z,3.83
2024-03-10T00:48:39.348Z,3.55
2024-03-10T00:51:40.693Z,3.75
2024-03-10T00:54:42.107Z,3.50
2024-03-10T00:57:43.464Z,3.72
2024-03-10T01:00:44.880Z,3.88
2024-03-10T01:03:46.341Z,4.40
2024-03-10T01:06:49.083Z,4.47
2024-03-10T01:09:50.569Z,3.83
2024-03-10T01:12:52.004Z,3.40
2024-03-10T01:15:53.350Z,4.70
2024-03-10T01:18:54.811Z,3.42
2024-03-10T01:21:56.145Z,4.25
2024-03-10T01:24:57.552Z,3.70
2024-03-10T01:27:58.922Z,3.90
2024-03-10T01:31:00.364Z,4.43
2024-03-10T01:34:01.694Z,3.75
2024-03-10T01:37:03.684Z,3.30
2024-03-10T01:40:05.067Z,3.53
2024-03-10T01:43:06.468Z,3.83
2024-03-10T01:46:07.985Z,3.60
2024-03-10T01:49:09.409Z,3.67
2024-03-10T01:52:10.810Z,4.03
2024-03-10T01:55:12.135Z,3.60
2024-03-10T01:58:13.539Z,3.45
2024-03-10T02:01:15.060Z,4.18
2024-03-10T02:04:16.448Z,3.85
2024-03-10T02:07:17.857Z,3.50
2024-03-10T02:10:19.186Z,4.20
2024-03-10T02:13:20.577Z,3.33
2024-03-10T02:16:21.983Z,4.00
2024-03-10T02:19:23.333Z,3.63
2024-03-10T02:22:24.737Z,3.95
2024-03-10T02:25:26.281Z,4.03
2024-03-10T02:28:27.732Z,3.60
2024-03-10T02:31:29.073Z,3.95
2024-03-10T02:34:30.452Z,3.40
2024-03-10T02:37:31.851Z,3.47
2024-03-10T02:40:33.189Z,3.73
2024-03-10T02:43:34.583Z,3.50
2024-03-10T02:46:35.892Z,4.15
2024-03-10T02:49:37.291Z,4.20
2024-03-10T02:52:38.699Z,4.15
2024-03-10T02:55:40.095Z,3.07
2024-03-10T02:58:41.481Z,3.78
2024-03-10T03:01:42.892Z,3.92
2024-03-10T03:04:44.292Z,3.95
2024-03-10T03:07:45.784Z,3.67
2024-03-10T03:10:48.338Z,3.73
2024-03-10T03:13:49.712Z,4.35
2024-03-10T03:16:51.135Z,4.35
2024-03-10T03:19:52.600Z,3.90
2024-03-10T03:22:54.037Z,3.80
2024-03-10T03:25:55.562Z,3.57
2024-03-10T03:28:56.947Z,3.28
2024-03-10T03:31:58.395Z,3.58
2024-03-10T03:34:59.830Z,3.63
2024-03-10T03:38:01.299Z,3.80
2024-03-10T03:41:02.758Z,3.97
2024-03-10T03:44:04.178Z,4.07
2024-03-10T03:47:05.612Z,4.22
2024-03-10T03:50:07.373Z,3.53
2024-03-10T03:53:08.977Z,4.18
2024-03-10T03:56:10.372Z,3.40
2024-03-10T03:59:11.841Z,3.92
2024-03-10T04:02:13.195Z,4.22
2024-03-10T04:05:14.691Z,4.00
2024-03-10T04:08:16.200Z,3.97
2024-03-10T04:11:17.674Z,4.57
2024-03-10T04:14:19.160Z,4.03
2024-03-10T04:17:20.589Z,4.18
2024-03-10T04:20:22.058Z,4.00
2024-03-10T04:23:23.495Z,4.20
2024-03-10T04:26:25.057Z,4.27
2024-03-10T04:29:26.531Z,4.28
2024-03-10T04:32:28.116Z,3.72
2024-03-10T04:35:29.578Z,4.30
2024-03-10T04:38:31.055Z,3.83
2024-03-10T04:41:33.453Z,3.97
2024-03-10T04:44:34.835Z,3.83
2024-03-10T04:47:36.451Z,4.55
2024-03-10T04:50:37.929Z,4.20
2024-03-10T04:53:39.332Z,4.05
2024-03-10T04:56:40.675Z,4.00
2024-03-10T04:59:42.084Z,3.60
2024-03-10T05:02:43.425Z,4.20
2024-03-10T05:05:44.810Z,4.43
2024-03-10T05:08:46.226Z,4.35
2024-03-10T05:11:47.656Z,4.40
2024-03-10T05:14:49.115Z,4.63
2024-03-10T05:17:50.514Z,4.93
2024-03-10T05:20:51.987Z,4.40
2024-03-10T05:23:53.399Z,5.05
2024-03-10T05:26:55.978Z,4.13
2024-03-10T05:29:57.383Z,4.60
2024-03-10T05:32:58.802Z,4.47
2024-03-10T05:36:00.232Z,3.92
2024-03-10T05:39:01.589Z,4.43
2024-03-10T05:42:03.094Z,4.07
2024-03-10T05:45:04.513Z,4.28
2024-03-10T05:48:05.934Z,5.10
2024-03-10T05:51:07.410Z,3.90
2024-03-10T05:54:08.745Z,3.90
2024-03-10T05:57:10.166Z,4.17
2024-03-10T06:00:11.501Z,4.50
2024-03-10T06:03:12.899Z,4.40
2024-03-10T06:06:14.282Z,3.83
2024-03-10T06:09:15.602Z,4.63
2024-03-10T06:12:17.116Z,3.93
2024-03-10T06:15:18.573Z,3.55
2024-03-10T06:18:20.156Z,4.63
2024-03-10T06:21:21.615Z,4.38
2024-03-10T06:24:23.002Z,3.83
2024-03-10T06:27:24.420Z,3.67
2024-03-10T06:30:25.787Z,4.05
2024-03-10T06:33:27.173Z,4.80
2024-03-10T06:36:28.577Z,3.70
2024-03-10T06:39:30.000Z,4.00
2024-03-10T06:42:31.436Z,4.40
2024-03-10T06:45:32.832Z,3.97
2024-03-10T06:48:34.207Z,4.05
2024-03-10T06:51:35.624Z,4.10
2024-03-10T06:54:36.962Z,3.88
2024-03-10T06:57:38.440Z,3.83
2024-03-10T07:00:39.834Z,3.65
2024-03-10T07:03:41.251Z,4.55
2024-03-10T07:06:42.596Z,3.78
2024-03-10T07:09:43.991Z,4.72
2024-03-10T07:12:45.436Z,4.27
2024-03-10T07:15:46.780Z,4.38
2024-03-10T07:18:48.185Z,4.65
2024-03-10T07:21:49.585Z,3.83
2024-03-10T07:24:50.929Z,4.03
2024-03-10T07:27:52.302Z,4.50
2024-03-10T07:30:53.685Z,3.70
2024-03-10T07:33:55.071Z,4.82
2024-03-10T07:36:56.465Z,3.70
2024-03-10T07:39:57.963Z,5.22
2024-03-10T07:42:59.453Z,4.77
2024-03-10T07:46:00.906Z,4.03
2024-03-10T07:49:02.278Z,4.72
2024-03-10T07:52:03.693Z,4.28
2024-03-10T07:55:05.030Z,4.22
2024-03-10T07:58:06.460Z,3.93
2024-03-10T08:01:07.934Z,4.20
2024-03-10T08:04:09.292Z,4.07
2024-03-10T08:07:10.725Z,4.07
2024-03-10T08:10:12.106Z,4.50
2024-03-10T08:13:13.522Z,3.90
2024-03-10T08:16:14.901Z,4.65
2024-03-10T08:19:16.348Z,4.93
2024-03-10T08:22:17.736Z,4.88
2024-03-10T08:25:19.132Z,4.05
2024-03-10T08:28:20.503Z,4.13
2024-03-10T08:31:21.893Z,5.32
2024-03-10T08:34:23.304Z,5.25
2024-03-10T08:37:24.688Z,3.80
2024-03-10T08:40:26.085Z,3.92
2024-03-10T08:43:27.415Z,4.17
2024-03-10T08:46:28.969Z,4.00
2024-03-10T08:49:30.392Z,5.28
2024-03-10T08:52:31.726Z,3.60
2024-03-10T08:55:33.116Z,4.60
2024-03-10T08:58:34.448Z,4.40
2024-03-10T09:01:35.983Z,3.78
2024-03-10T09:04:37.336Z,4.15
2024-03-10T09:07:38.742Z,4.10
2024-03-10T09:10:49.354Z,3.67
2024-03-10T09:13:55.275Z,4.43
2024-03-10T09:16:56.770Z,4.00
2024-03-10T09:19:58.135Z,4.38
2024-03-10T09:22:59.605Z,4.28
2024-03-10T09:26:00.990Z,4.75
2024-03-10T09:29:02.499Z,4.03
2024-03-10T09:32:03.969Z,4.18
2024-03-10T09:35:05.389Z,4.63
2024-03-10T09:38:06.900Z,3.33
2024-03-10T09:41:08.447Z,3.83
2024-03-10T09:44:09.824Z,4.67
2024-03-10T09:47:11.382Z,4.07
2024-03-10T09:50:12.843Z,4.00
2024-03-10T09:53:14.256Z,3.80
2024-03-10T09:56:15.861Z,3.53
2024-03-10T09:59:17.295Z,4.40
2024-03-10T10:02:18.747Z,4.60
2024-03-10T10:05:20.181Z,4.53
2024-03-10T10:08:21.627Z,4.25
2024-03-10T10:11:23.111Z,3.53
2024-03-10T10:14:24.967Z,4.10
2024-03-10T10:17:26.885Z,4.03
2024-03-10T10:20:28.510Z,4.32
2024-03-10T10:23:29.897Z,4.10
2024-03-10T10:26:31.421Z,3.45
2024-03-10T10:29:32.989Z,4.00
2024-03-10T10:32:34.661Z,3.75
2024-03-10T10:35:36.318Z,4.82
2024-03-10T10:38:37.870Z,4.38
2024-03-10T10:41:39.540Z,4.18
2024-03-10T10:44:41.183Z,3.80
2024-03-10T10:47:42.735Z,4.35
2024-03-10T10:50:45.103Z,5.00
2024-03-10T10:53:46.689Z,4.07
2024-03-10T10:56:48.072Z,3.90
2024-03-10T10:59:49.650Z,3.43
2024-03-10T11:02:51.005Z,3.53
2024-03-10T11:05:52.420Z,3.55
2024-03-10T11:08:53.761Z,3.90
2024-03-10T11:11:55.294Z,4.05
2024-03-10T11:14:56.769Z,3.73
2024-03-10T11:17:58.179Z,4.10
2024-03-10T11:20:59.709Z,4.15
2024-03-10T11:24:01.457Z,3.88
2024-03-10T11:27:02.847Z,4.15
2024-03-10T11:30:04.218Z,3.57
2024-03-10T11:33:05.765Z,3.47
2024-03-10T11:36:07.179Z,4.03
2024-03-10T11:39:08.584Z,3.90
2024-03-10T11:42:09.924Z,3.47
2024-03-10T11:45:11.372Z,3.43
2024-03-10T11:48:12.720Z,3.75
2024-03-10T11:51:14.189Z,4.40
2024-03-10T11:54:15.575Z,3.95
2024-03-10T11:57:17.002Z,3.80
2024-03-10T12:00:18.404Z,3.73
2024-03-10T12:03:19.827Z,4.18
2024-03-10T12:06:22.239Z,3.38
2024-03-10T12:09:24.647Z,3.10
2024-03-10T12:12:26.053Z,2.95
2024-03-10T12:15:27.452Z,3.17
2024-03-10T12:18:28.926Z,3.38
2024-03-10T12:21:30.334Z,3.13
2024-03-10T12:24:31.742Z,3.13
2024-03-10T12:27:33.092Z,3.42
2024-03-10T12:30:34.503Z,3.43
2024-03-10T12:33:35.951Z,3.65
2024-03-10T12:36:37.450Z,4.20
2024-03-10T12:39:38.875Z,3.42
2024-03-10T12:42:40.320Z,3.67
2024-03-10T12:45:41.693Z,4.07
2024-03-10T12:48:43.133Z,3.80
2024-03-10T12:51:44.582Z,3.78
2024-03-10T12:54:45.913Z,3.88
2024-03-10T12:57:47.302Z,3.10
2024-03-10T13:00:48.666Z,3.40
2024-03-10T13:03:50.091Z,3.38
2024-03-10T13:06:51.428Z,4.43
2024-03-10T13:09:52.855Z,3.25
2024-03-10T13:12:54.179Z,3.67
2024-03-10T13:15:55.710Z,2.80
2024-03-10T13:18:57.264Z,3.03
2024-03-10T13:21:58.684Z,3.55
2024-03-10T13:25:00.027Z,3.42
2024-03-10T13:28:01.423Z,2.92
2024-03-10T13:31:02.763Z,3.40
2024-03-10T13:34:04.163Z,3.22
2024-03-10T13:37:05.485Z,3.22
2024-03-10T13:40:07.050Z,3.42
2024-03-10T13:43:08.627Z,3.22
2024-03-10T13:46:09.977Z,2.97
2024-03-10T13:49:11.380Z,3.35
2024-03-10T13:52:12.729Z,3.63
2024-03-10T13:55:14.133Z,3.15
2024-03-10T13:58:15.457Z,3.15
2024-03-10T14:01:16.932Z,3.47
2024-03-10T14:04:18.321Z,3.15
2024-03-10T14:07:19.752Z,3.92
2024-03-10T14:10:21.145Z,3.03
2024-03-10T14:13:23.661Z,3.58
2024-03-10T14:16:25.219Z,3.30
2024-03-10T14:19:26.557Z,3.10
2024-03-10T14:22:27.955Z,3.25
2024-03-10T14:25:29.401Z,2.58
2024-03-10T14:28:30.829Z,3.10
2024-03-10T14:31:32.151Z,3.23
2024-03-10T14:34:33.562Z,3.55
2024-03-10T14:37:34.981Z,3.35
2024-03-10T14:40:36.322Z,2.97
2024-03-10T14:43:37.733Z,3.05
2024-03-10T14:46:39.124Z,2.83
2024-03-10T14:49:40.557Z,3.33
2024-03-10T14:52:41.911Z,3.33
2024-03-10T14:55:43.349Z,2.78
2024-03-10T14:58:44.696Z,3.17
2024-03-10T15:01:46.138Z,3.50
2024-03-10T15:04:47.505Z,3.60
2024-03-10T15:07:48.918Z,3.47
2024-03-10T15:10:50.286Z,3.45
2024-03-10T15:13:51.733Z,3.03
2024-03-10T15:16:53.208Z,3.07
2024-03-10T15:19:54.650Z,2.80
2024-03-10T15:22:56.127Z,2.92
2024-03-10T15:25:57.647Z,3.33
2024-03-10T15:28:59.193Z,3.08
2024-03-10T15:32:00.626Z,3.80
2024-03-10T15:35:02.072Z,3.13
2024-03-10T15:38:03.483Z,3.40
2024-03-10T15:41:04.916Z,3.30
2024-03-10T15:44:06.655Z,2.88
2024-03-10T15:47:08.204Z,3.60
2024-03-10T15:50:09.759Z,2.85
2024-03-10T15:53:11.877Z,3.25
2024-03-10T15:56:13.824Z,3.35
2024-03-10T15:59:15.396Z,3.42
2024-03-10T16:02:16.820Z,2.90
2024-03-10T16:05:18.254Z,2.78
2024-03-10T16:08:19.754Z,3.38
2024-03-10T16:11:21.249Z,3.00
2024-03-10T16:14:22.767Z,3.15
2024-03-10T16:17:24.683Z,2.70
2024-03-10T16:20:26.217Z,2.47
2024-03-10T16:23:28.198Z,2.92
2024-03-10T16:26:29.673Z,3.50
2024-03-10T16:29:31.593Z,2.85
2024-03-10T16:32:33.146Z,2.13
2024-03-10T16:35:35.042Z,3.38
2024-03-10T16:38:36.719Z,3.08
2024-03-10T16:41:38.316Z,2.78
2024-03-10T16:44:39.894Z,3.58
2024-03-10T16:47:41.761Z,2.87
2024-03-10T16:50:43.703Z,2.72
2024-03-10T16:53:45.580Z,3.08
2024-03-10T16:56:47.160Z,2.63
2024-03-10T16:59:48.582Z,3.72
2024-03-10T17:02:50.454Z,2.40
2024-03-10T17:05:51.870Z,2.95
2024-03-10T17:08:53.364Z,3.15
2024-03-10T17:11:55.388Z,2.58
2024-03-10T17:14:57.382Z,2.80
2024-03-10T17:17:59.877Z,3.17
2024-03-10T17:21:01.272Z,3.17
2024-03-10T17:24:02.820Z,3.95
2024-03-10T17:27:04.714Z,2.75
2024-03-10T17:30:06.140Z,3.30
2024-03-10T17:33:08.149Z,2.67
2024-03-10T17:36:10.113Z,2.10
2024-03-10T17:39:12.129Z,2.58
2024-03-10T17:42:14.083Z,2.70
2024-03-10T17:45:16.024Z,2.65
2024-03-10T17:48:17.618Z,2.93
2024-03-10T17:51:19.093Z,2.08
2024-03-10T17:54:20.647Z,2.92
2024-03-10T17:57:22.341Z,2.35
2024-03-10T18:00:24.178Z,3.20
2024-03-10T18:03:25.731Z,3.30
2024-03-10T18:06:29.734Z,2.78
2024-03-10T18:09:31.179Z,2.97
2024-03-10T18:12:32.658Z,2.60
2024-03-10T18:15:34.486Z,2.72
2024-03-10T18:18:36.594Z,2.63
2024-03-10T18:21:38.413Z,2.65
2024-03-10T18:24:39.952Z,2.72
2024-03-10T18:27:41.467Z,3.10
2024-03-10T18:30:43.585Z,3.03
2024-03-10T18:33:46.127Z,2.60
2024-03-10T18:36:47.660Z,2.58
2024-03-10T18:39:49.060Z,3.38
2024-03-10T18:42:50.937Z,2.58
2024-03-10T18:45:52.658Z,3.00
2024-03-10T18:48:54.482Z,2.57
2024-03-10T18:51:57.138Z,3.10
2024-03-10T18:54:59.681Z,3.13
2024-03-10T18:58:01.784Z,3.00
2024-03-10T19:01:03.562Z,2.80
2024-03-10T19:04:05.158Z,2.50
2024-03-10T19:07:07.004Z,2.47
2024-03-10T19:10:08.784Z,2.60
2024-03-10T19:13:10.680Z,2.70
2024-03-10T19:16:12.693Z,2.47
2024-03-10T19:19:14.600Z,2.10
2024-03-10T19:22:16.509Z,2.25
2024-03-10T19:25:17.984Z,2.83
2024-03-10T19:28:19.810Z,2.70
2024-03-10T19:31:21.398Z,2.42
2024-03-10T19:34:23.204Z,1.90
2024-03-10T19:37:24.699Z,2.45
2024-03-10T19:40:26.543Z,3.03
2024-03-10T19:43:28.264Z,2.50
2024-03-10T19:46:29.742Z,2.60
2024-03-10T19:49:31.134Z,2.57
2024-03-10T19:52:32.488Z,2.40
2024-03-10T19:55:33.939Z,2.97
2024-03-10T19:58:35.288Z,2.55
2024-03-10T20:01:36.718Z,3.00
2024-03-10T20:04:38.529Z,2.47
2024-03-10T20:07:40.023Z,2.63
2024-03-10T20:10:41.434Z,2.65
2024-03-10T20:13:43.302Z,2.50
2024-03-10T20:16:44.723Z,2.90
2024-03-10T20:19:46.599Z,2.80
2024-03-10T20:22:48.509Z,2.92
2024-03-10T20:25:50.418Z,3.13
2024-03-10T20:28:52.359Z,2.70
2024-03-10T20:31:53.884Z,2.80
2024-03-10T20:34:55.362Z,2.70
2024-03-10T20:37:56.823Z,2.88
2024-03-10T20:40:58.309Z,2.65
2024-03-10T20:44:00.114Z,2.53
2024-03-10T20:47:01.972Z,3.17
2024-03-10T20:50:03.761Z,2.57
2024-03-10T20:53:05.205Z,2.45
2024-03-10T20:56:06.781Z,2.90
2024-03-10T20:59:08.297Z,3.03
2024-03-10T21:02:12.388Z,1.90
2024-03-10T21:05:13.937Z,2.80
2024-03-10T21:08:15.389Z,2.28
2024-03-10T21:11:17.209Z,2.38
2024-03-10T21:14:18.619Z,2.53
2024-03-10T21:17:20.541Z,2.58
2024-03-10T21:20:21.949Z,2.63
2024-03-10T21:23:23.618Z,2.17
2024-03-10T21:26:25.034Z,2.67
2024-03-10T21:29:26.459Z,2.60
2024-03-10T21:32:27.850Z,2.55
2024-03-10T21:35:29.400Z,2.77
2024-03-10T21:38:30.887Z,2.40
2024-03-10T21:41:32.392Z,2.50
2024-03-10T21:44:34.726Z,2.13
2024-03-10T21:47:36.322Z,2.78
2024-03-10T21:50:37.825Z,1.67
2024-03-10T21:53:39.450Z,2.08
2024-03-10T21:56:41.742Z,2.22
2024-03-10T21:59:43.380Z,2.70
2024-03-10T22:02:44.975Z,2.53
2024-03-10T22:05:46.538Z,2.23
2024-03-10T22:08:48.043Z,2.35
2024-03-10T22:11:49.549Z,2.88
2024-03-10T22:14:50.986Z,2.35
2024-03-10T22:17:52.548Z,2.67
2024-03-10T22:20:54.148Z,2.57
2024-03-10T22:23:55.592Z,2.22
2024-03-10T22:26:56.915Z,2.03
2024-03-10T22:29:58.336Z,2.28
2024-03-10T22:32:59.824Z,2.28
2024-03-10T22:36:01.348Z,2.33
2024-03-10T22:39:02.670Z,2.17
2024-03-10T22:42:04.057Z,2.50
2024-03-10T22:45:12.036Z,2.50
2024-03-10T22:48:17.681Z,2.17
2024-03-10T22:51:19.087Z,2.03
2024-03-10T22:54:20.487Z,2.42
2024-03-10T22:57:21.896Z,2.90
2024-03-10T23:00:23.645Z,2.30
2024-03-10T23:03:25.206Z,2.20
2024-03-10T23:06:26.636Z,1.80
2024-03-10T23:09:27.976Z,2.22
2024-03-10T23:12:29.430Z,2.22
2024-03-10T23:15:30.830Z,2.72
2024-03-10T23:18:32.400Z,2.25
2024-03-10T23:21:33.777Z,1.77
2024-03-10T23:24:36.357Z,2.42
2024-03-10T23:27:37.690Z,2.90
2024-03-10T23:30:39.316Z,2.33
2024-03-10T23:33:40.828Z,2.53
2024-03-10T23:36:42.245Z,2.20
2024-03-10T23:39:43.647Z,1.80
2024-03-10T23:42:45.061Z,2.85
2024-03-10T23:45:46.412Z,1.45
2024-03-10T23:48:47.808Z,2.03
2024-03-10T23:51:49.224Z,1.70
2024-03-10T23:54:50.644Z,2.20
2024-03-10T23:57:51.979Z,1.83
